Skip Navigation Links Skip Navigation Links

Current Weather

Castle, Atwater, Calif.

For information only: do not use for flight planning or navigation.
Latest weather
Observation time Wednesday, January 26, 2022 8:55 PM PST
Local time Wednesday, January 26, 2022 9:49 PM PST
Flight conditions Visual Meteorological Conditions
Winds
Wind direction Northwest (310°)
Wind speed 7 mph
Visibility 5 mi.
Sky condition
Ceiling unlimited
Sky clear
Temperature 46°F
Dewpoint 46°F
Altimeter 30.15 in.Hg
Derived measurements
Relative humidity 100%
Wind chill 43°F
Density altitude -761 ft.
Remarks
Fully automated report.
Automated weather observing station without precipitation discriminator.
METAR KMER 270455Z AUTO 31006KT 5SM CLR 08/08 A3015 RMK AO1

Settings

Location code

InnerDrive.Weather 4.0.6770.0 Release CLR 4.0.30319.42000
Copyright ©2018 Inner Drive Technology. All rights reserved. Portions Copyright ©1986-2018 David Braverman.

Find weather

Site navigation


Skip Navigation Links

Place info

Page info

PayPal - The safer, easier way to pay online!

Return home.

Copyright ©2022 Inner Drive Technology. Purveyors of fine, hand-crafted computer software. Page printed 2022-01-27T05:49:50 UTC.